createdAt,value
2022-10-08T00:01:10.022Z,1.45
2022-10-08T00:03:39.713Z,1.02
2022-10-08T00:06:07.977Z,0.98
2022-10-08T00:08:37.789Z,1.70
2022-10-08T00:11:07.835Z,1.38
2022-10-08T00:13:42.692Z,1.92
2022-10-08T00:16:15.219Z,1.50
2022-10-08T00:18:44.191Z,1.17
2022-10-08T00:21:33.387Z,1.58
2022-10-08T00:24:04.266Z,1.60
2022-10-08T00:26:33.084Z,1.73
2022-10-08T00:29:03.040Z,1.60
2022-10-08T00:31:36.152Z,1.58
2022-10-08T00:34:05.899Z,1.30
2022-10-08T00:36:34.363Z,1.42
2022-10-08T00:39:14.896Z,1.45
2022-10-08T00:41:44.046Z,1.80
2022-10-08T00:44:54.647Z,1.17
2022-10-08T00:47:33.503Z,1.90
2022-10-08T00:50:32.132Z,1.60
2022-10-08T00:53:02.122Z,1.70
2022-10-08T00:55:30.192Z,2.30
2022-10-08T00:58:02.115Z,2.38
2022-10-08T01:00:30.249Z,1.55
2022-10-08T01:02:57.031Z,2.03
2022-10-08T01:06:05.413Z,2.10
2022-10-08T01:08:51.303Z,2.03
2022-10-08T01:11:23.655Z,2.30
2022-10-08T01:14:12.951Z,1.98
2022-10-08T01:17:04.271Z,2.42
2022-10-08T01:20:01.452Z,1.80
2022-10-08T01:22:31.244Z,1.92
2022-10-08T01:25:26.287Z,1.90
2022-10-08T01:28:05.634Z,1.25
2022-10-08T01:30:35.839Z,1.48
2022-10-08T01:33:28.396Z,1.40
2022-10-08T01:35:59.556Z,1.30
2022-10-08T01:38:31.654Z,1.92
2022-10-08T01:41:02.873Z,1.75
2022-10-08T01:43:34.142Z,1.50
2022-10-08T01:46:07.942Z,1.60
2022-10-08T01:48:38.808Z,1.77
2022-10-08T01:51:18.625Z,1.88
2022-10-08T01:53:48.561Z,1.23
2022-10-08T01:56:21.795Z,1.70
2022-10-08T01:58:51.465Z,1.35
2022-10-08T02:01:27.940Z,1.50
2022-10-08T02:04:13.509Z,1.50
2022-10-08T02:06:47.664Z,0.90
2022-10-08T02:09:14.955Z,1.50
2022-10-08T02:11:41.594Z,1.55
2022-10-08T02:14:08.629Z,1.50
2022-10-08T02:16:39.278Z,1.17
2022-10-08T02:19:43.890Z,1.30
2022-10-08T02:22:16.065Z,1.85
2022-10-08T02:24:57.775Z,1.50
2022-10-08T02:27:40.665Z,1.80
2022-10-08T02:30:13.143Z,1.85
2022-10-08T02:33:15.896Z,2.53
2022-10-08T02:35:53.956Z,2.10
2022-10-08T02:38:48.940Z,2.03
2022-10-08T02:41:17.090Z,2.40
2022-10-08T02:43:48.556Z,2.40
2022-10-08T02:46:22.643Z,2.67
2022-10-08T02:49:01.534Z,3.17
2022-10-08T02:51:30.456Z,3.33
2022-10-08T02:53:59.148Z,3.00
2022-10-08T02:56:28.105Z,3.10
2022-10-08T02:58:55.827Z,3.78
2022-10-08T03:01:31.413Z,2.97
2022-10-08T03:04:17.532Z,3.35
2022-10-08T03:06:45.152Z,4.13
2022-10-08T03:09:14.124Z,4.25
2022-10-08T03:11:41.523Z,4.82
2022-10-08T03:14:12.216Z,5.13
2022-10-08T03:16:45.286Z,4.95
2022-10-08T03:19:17.517Z,4.30
2022-10-08T03:21:47.351Z,4.85
2022-10-08T03:24:15.173Z,4.60
2022-10-08T03:26:42.294Z,4.47
2022-10-08T03:29:09.338Z,5.45
2022-10-08T03:31:35.992Z,4.75
2022-10-08T03:34:02.684Z,4.43
2022-10-08T03:36:30.160Z,4.88
2022-10-08T03:38:57.235Z,4.55
2022-10-08T03:41:23.948Z,5.60
2022-10-08T03:43:50.632Z,4.47
2022-10-08T03:46:17.418Z,5.22
2022-10-08T03:48:47.740Z,4.65
2022-10-08T03:51:15.265Z,4.60
2022-10-08T03:53:43.083Z,3.95
2022-10-08T03:56:20.120Z,4.25
2022-10-08T03:58:51.808Z,4.13
2022-10-08T04:01:18.489Z,3.28
2022-10-08T04:03:47.348Z,3.30
2022-10-08T04:06:14.693Z,3.03
2022-10-08T04:08:41.702Z,3.00
2022-10-08T04:11:11.072Z,3.22
2022-10-08T04:13:38.521Z,3.45
2022-10-08T04:16:15.003Z,2.50
2022-10-08T04:18:42.024Z,2.75
2022-10-08T04:21:11.974Z,2.50
2022-10-08T04:23:40.387Z,2.63
2022-10-08T04:26:08.580Z,2.40
2022-10-08T04:28:39.547Z,1.98
2022-10-08T04:31:09.810Z,2.58
2022-10-08T04:33:37.132Z,1.98
2022-10-08T04:36:12.302Z,2.25
2022-10-08T04:38:39.212Z,2.10
2022-10-08T04:41:08.567Z,2.38
2022-10-08T04:43:36.662Z,2.53
2022-10-08T04:46:04.653Z,2.22
2022-10-08T04:48:31.901Z,1.90
2022-10-08T04:51:01.080Z,2.00
2022-10-08T04:53:29.363Z,1.70
2022-10-08T04:55:57.200Z,2.30
2022-10-08T04:58:26.629Z,2.00
2022-10-08T05:00:53.203Z,1.98
2022-10-08T05:03:22.687Z,1.85
2022-10-08T05:05:49.335Z,1.73
2022-10-08T05:08:15.890Z,1.88
2022-10-08T05:10:48.743Z,2.28
2022-10-08T05:13:15.395Z,1.83
2022-10-08T05:15:42.089Z,1.38
2022-10-08T05:18:08.890Z,1.50
2022-10-08T05:20:38.357Z,1.48
2022-10-08T05:23:04.969Z,1.60
2022-10-08T05:25:32.531Z,1.52
2022-10-08T05:27:59.148Z,1.75
2022-10-08T05:30:26.069Z,1.58
2022-10-08T05:32:52.719Z,1.58
2022-10-08T05:35:22.592Z,1.80
2022-10-08T05:37:49.343Z,1.55
2022-10-08T05:40:16.240Z,1.30
2022-10-08T05:42:42.824Z,1.50
2022-10-08T05:45:10.028Z,2.15
2022-10-08T05:47:36.607Z,1.50
2022-10-08T05:50:03.499Z,1.58
2022-10-08T05:52:30.099Z,1.70
2022-10-08T05:54:56.856Z,1.38
2022-10-08T05:57:23.637Z,1.70
2022-10-08T05:59:50.257Z,1.45
2022-10-08T06:02:17.007Z,1.30
2022-10-08T06:04:43.721Z,1.80
2022-10-08T06:07:10.321Z,1.55
2022-10-08T06:09:37.209Z,1.98
2022-10-08T06:12:04.240Z,1.45
2022-10-08T06:14:31.000Z,1.65
2022-10-08T06:16:57.608Z,3.80
2022-10-08T06:19:24.570Z,2.40
2022-10-08T06:21:51.296Z,1.40
2022-10-08T06:24:18.251Z,1.58
2022-10-08T06:26:45.183Z,1.27
2022-10-08T06:29:17.965Z,1.88
2022-10-08T06:31:45.420Z,1.33
2022-10-08T06:34:12.195Z,1.40
2022-10-08T06:36:39.391Z,1.77
2022-10-08T06:39:09.701Z,1.40
2022-10-08T06:41:36.482Z,1.60
2022-10-08T06:44:05.070Z,1.65
2022-10-08T06:46:32.757Z,1.45
2022-10-08T06:49:01.323Z,1.42
2022-10-08T06:51:28.728Z,1.17
2022-10-08T06:54:02.873Z,1.45
2022-10-08T06:56:32.879Z,1.45
2022-10-08T06:58:59.514Z,1.33
2022-10-08T07:01:31.954Z,1.50
2022-10-08T07:04:00.709Z,3.37
2022-10-08T07:06:28.129Z,1.63
2022-10-08T07:08:57.924Z,1.63
2022-10-08T07:11:25.446Z,1.45
2022-10-08T07:13:53.956Z,1.40
2022-10-08T07:16:23.666Z,1.70
2022-10-08T07:18:52.319Z,1.73
2022-10-08T07:21:21.108Z,1.80
2022-10-08T07:23:47.807Z,1.30
2022-10-08T07:26:15.595Z,1.60
2022-10-08T07:28:45.142Z,1.95
2022-10-08T07:31:14.880Z,1.85
2022-10-08T07:33:42.253Z,1.33
2022-10-08T07:36:12.079Z,1.17
2022-10-08T07:38:39.339Z,1.13
2022-10-08T07:41:07.099Z,1.35
2022-10-08T07:43:34.223Z,1.30
2022-10-08T07:46:00.997Z,1.30
2022-10-08T07:48:34.083Z,1.60
2022-10-08T07:51:11.670Z,1.45
2022-10-08T07:53:39.715Z,1.40
2022-10-08T07:56:07.935Z,1.50
2022-10-08T07:58:35.368Z,1.55
2022-10-08T08:01:04.126Z,1.58
2022-10-08T08:03:30.925Z,1.27
2022-10-08T08:06:05.790Z,1.35
2022-10-08T08:08:34.484Z,1.42
2022-10-08T08:11:02.519Z,1.50
2022-10-08T08:13:35.924Z,1.52
2022-10-08T08:16:27.517Z,1.23
2022-10-08T08:18:57.078Z,1.20
2022-10-08T08:21:27.159Z,1.20
2022-10-08T08:23:56.231Z,1.52
2022-10-08T08:26:28.766Z,1.60
2022-10-08T08:28:58.892Z,1.88
2022-10-08T08:31:28.683Z,1.67
2022-10-08T08:33:58.891Z,1.45
2022-10-08T08:36:28.393Z,1.52
2022-10-08T08:38:55.219Z,0.98
2022-10-08T08:41:42.413Z,1.38
2022-10-08T08:44:22.561Z,1.33
2022-10-08T08:47:00.161Z,1.65
2022-10-08T08:49:34.912Z,1.17
2022-10-08T08:52:03.400Z,1.55
2022-10-08T08:54:30.622Z,2.20
2022-10-08T08:57:11.355Z,1.48
2022-10-08T08:59:44.585Z,1.48
2022-10-08T09:02:29.951Z,1.48
2022-10-08T09:05:03.924Z,1.75
2022-10-08T09:07:41.302Z,2.20
2022-10-08T09:10:20.347Z,1.35
2022-10-08T09:12:49.914Z,1.38
2022-10-08T09:15:18.743Z,1.23
2022-10-08T09:17:49.692Z,1.23
2022-10-08T09:20:18.038Z,0.90
2022-10-08T09:22:45.685Z,1.02
2022-10-08T09:25:24.923Z,1.33
2022-10-08T09:28:08.759Z,1.25
2022-10-08T09:30:41.478Z,1.13
2022-10-08T09:33:16.195Z,1.52
2022-10-08T09:35:53.879Z,1.67
2022-10-08T09:38:24.828Z,1.42
2022-10-08T09:41:06.456Z,1.63
2022-10-08T09:43:34.922Z,1.58
2022-10-08T09:46:11.715Z,1.80
2022-10-08T09:48:39.858Z,2.20
2022-10-08T09:51:16.555Z,1.27
2022-10-08T09:53:53.058Z,1.75
2022-10-08T09:56:28.134Z,1.38
2022-10-08T09:59:03.711Z,1.40
2022-10-08T10:01:31.712Z,1.10
2022-10-08T10:04:03.658Z,1.25
2022-10-08T10:06:33.919Z,1.13
2022-10-08T10:09:25.427Z,1.75
2022-10-08T10:12:14.753Z,1.30
2022-10-08T10:14:55.083Z,1.10
2022-10-08T10:17:39.846Z,1.10
2022-10-08T10:20:34.973Z,1.33
2022-10-08T10:23:12.932Z,1.35
2022-10-08T10:26:06.704Z,1.30
2022-10-08T10:28:41.315Z,1.40
2022-10-08T10:31:15.940Z,1.08
2022-10-08T10:33:56.753Z,1.45
2022-10-08T10:36:27.544Z,1.08
2022-10-08T10:39:12.945Z,1.35
2022-10-08T10:41:46.493Z,1.10
2022-10-08T10:44:16.059Z,1.23
2022-10-08T10:46:49.188Z,0.85
2022-10-08T10:49:18.872Z,1.00
2022-10-08T10:52:24.191Z,1.60
2022-10-08T10:54:50.790Z,1.00
2022-10-08T10:57:50.109Z,1.23
2022-10-08T11:00:30.107Z,1.20
2022-10-08T11:03:23.441Z,1.15
2022-10-08T11:05:57.469Z,1.00
2022-10-08T11:08:40.161Z,1.10
2022-10-08T11:11:23.011Z,0.68
2022-10-08T11:14:10.118Z,1.02
2022-10-08T11:17:21.910Z,1.50
2022-10-08T11:20:01.655Z,1.05
2022-10-08T11:22:54.230Z,1.00
2022-10-08T11:26:10.822Z,1.45
2022-10-08T11:28:43.733Z,1.80
2022-10-08T11:31:34.625Z,1.25
2022-10-08T11:34:03.591Z,0.90
2022-10-08T11:36:47.093Z,1.23
2022-10-08T11:39:25.691Z,1.75
2022-10-08T11:41:55.401Z,1.33
2022-10-08T11:44:22.298Z,1.10
2022-10-08T11:46:49.271Z,1.27
2022-10-08T11:49:16.959Z,1.55
2022-10-08T11:51:50.094Z,1.25
2022-10-08T11:54:25.187Z,2.55
2022-10-08T11:57:17.781Z,1.15
2022-10-08T11:59:54.757Z,1.17
2022-10-08T12:02:37.961Z,1.38
2022-10-08T12:05:22.844Z,2.35
2022-10-08T12:07:58.085Z,1.13
2022-10-08T12:10:37.094Z,2.28
2022-10-08T12:13:26.339Z,1.40
2022-10-08T12:15:54.861Z,1.48
2022-10-08T12:18:26.366Z,1.10
2022-10-08T12:21:16.381Z,1.15
2022-10-08T12:23:44.682Z,1.55
2022-10-08T12:26:14.867Z,1.45
2022-10-08T12:28:50.687Z,1.15
2022-10-08T12:31:25.330Z,1.30
2022-10-08T12:34:01.222Z,1.00
2022-10-08T12:36:44.937Z,1.02
2022-10-08T12:39:35.088Z,1.30
2022-10-08T12:42:05.019Z,1.30
2022-10-08T12:44:47.697Z,1.45
2022-10-08T12:47:32.959Z,1.38
2022-10-08T12:50:18.369Z,1.63
2022-10-08T12:52:45.481Z,1.08
2022-10-08T12:55:17.437Z,0.90
2022-10-08T12:57:44.528Z,0.88
2022-10-08T13:00:21.943Z,1.30
2022-10-08T13:03:07.384Z,0.88
2022-10-08T13:05:38.476Z,0.68
2022-10-08T13:08:34.962Z,1.40
2022-10-08T13:11:09.138Z,1.08
2022-10-08T13:13:35.729Z,1.10
2022-10-08T13:16:04.251Z,0.73
2022-10-08T13:18:32.785Z,0.95
2022-10-08T13:21:01.544Z,1.77
2022-10-08T13:23:42.336Z,1.33
2022-10-08T13:26:36.798Z,0.80
2022-10-08T13:29:21.897Z,0.90
2022-10-08T13:32:00.609Z,2.40
2022-10-08T13:34:33.313Z,0.88
2022-10-08T13:37:04.252Z,1.00
2022-10-08T13:39:36.650Z,0.98
2022-10-08T13:42:16.059Z,1.05
2022-10-08T13:44:43.678Z,1.23
2022-10-08T13:47:15.160Z,1.10
2022-10-08T13:49:42.267Z,0.93
2022-10-08T13:52:16.117Z,1.20
2022-10-08T13:54:43.198Z,0.87
2022-10-08T13:57:10.173Z,0.95
2022-10-08T13:59:37.253Z,1.05
2022-10-08T14:02:04.467Z,0.98
2022-10-08T14:04:31.178Z,1.35
2022-10-08T14:06:59.810Z,1.23
2022-10-08T14:09:28.465Z,0.65
2022-10-08T14:11:57.180Z,0.77
2022-10-08T14:14:25.173Z,0.73
2022-10-08T14:16:52.745Z,0.63
2022-10-08T14:19:21.360Z,1.05
2022-10-08T14:21:55.078Z,1.05
2022-10-08T14:24:21.794Z,1.00
2022-10-08T14:26:48.557Z,0.88
2022-10-08T14:29:15.128Z,0.98
2022-10-08T14:31:41.723Z,0.75
2022-10-08T14:34:08.383Z,0.90
2022-10-08T14:36:38.197Z,1.17
2022-10-08T14:39:05.302Z,0.80
2022-10-08T14:41:32.756Z,0.80
2022-10-08T14:43:59.782Z,1.08
2022-10-08T14:46:26.462Z,1.42
2022-10-08T14:48:53.179Z,1.42
2022-10-08T14:51:20.701Z,1.23
2022-10-08T14:53:47.334Z,1.23
2022-10-08T14:56:13.919Z,1.30
2022-10-08T14:58:40.749Z,1.15
2022-10-08T15:01:07.388Z,1.20
2022-10-08T15:03:34.105Z,1.40
2022-10-08T15:06:01.253Z,1.25
2022-10-08T15:08:28.728Z,1.30
2022-10-08T15:10:55.395Z,1.40
2022-10-08T15:13:22.285Z,1.65
2022-10-08T15:15:48.844Z,1.23
2022-10-08T15:18:15.740Z,1.52
2022-10-08T15:20:42.578Z,1.02
2022-10-08T15:23:10.572Z,1.33
2022-10-08T15:25:37.463Z,1.50
2022-10-08T15:28:04.512Z,1.08
2022-10-08T15:30:31.473Z,1.42
2022-10-08T15:33:03.274Z,1.27
2022-10-08T15:35:34.828Z,1.20
2022-10-08T15:38:02.208Z,1.85
2022-10-08T15:40:32.325Z,1.33
2022-10-08T15:42:59.133Z,1.20
2022-10-08T15:45:26.137Z,1.55
2022-10-08T15:47:55.539Z,1.25
2022-10-08T15:50:22.251Z,1.25
2022-10-08T15:52:49.200Z,2.13
2022-10-08T15:55:16.345Z,1.42
2022-10-08T15:57:42.985Z,1.52
2022-10-08T16:00:10.212Z,1.85
2022-10-08T16:02:36.884Z,1.80
2022-10-08T16:05:04.242Z,1.65
2022-10-08T16:07:30.984Z,0.80
2022-10-08T16:09:57.782Z,1.95
2022-10-08T16:12:24.889Z,1.48
2022-10-08T16:14:51.480Z,1.40
2022-10-08T16:17:18.120Z,1.27
2022-10-08T16:19:44.793Z,1.73
2022-10-08T16:22:11.431Z,1.63
2022-10-08T16:24:38.005Z,1.50
2022-10-08T16:27:04.796Z,1.40
2022-10-08T16:29:31.415Z,1.50
2022-10-08T16:31:58.598Z,2.42
2022-10-08T16:34:28.173Z,2.60
2022-10-08T16:36:55.031Z,1.13
2022-10-08T16:39:24.286Z,1.98
2022-10-08T16:41:51.411Z,1.45
2022-10-08T16:44:20.040Z,1.73
2022-10-08T16:46:51.773Z,1.85
2022-10-08T16:49:25.999Z,1.20
2022-10-08T16:52:02.358Z,1.58
2022-10-08T16:54:29.105Z,1.20
2022-10-08T16:56:56.638Z,1.67
2022-10-08T16:59:25.780Z,1.70
2022-10-08T17:01:54.793Z,1.85
2022-10-08T17:04:23.540Z,1.73
2022-10-08T17:06:51.038Z,1.48
2022-10-08T17:09:18.084Z,1.92
2022-10-08T17:11:44.814Z,1.23
2022-10-08T17:14:11.973Z,1.63
2022-10-08T17:16:40.061Z,1.83
2022-10-08T17:19:06.698Z,1.60
2022-10-08T17:21:35.234Z,1.70
2022-10-08T17:24:02.896Z,1.63
2022-10-08T17:26:31.333Z,1.58
2022-10-08T17:29:03.381Z,1.50
2022-10-08T17:31:31.851Z,1.35
2022-10-08T17:33:59.922Z,1.85
2022-10-08T17:36:29.206Z,1.83
2022-10-08T17:38:58.204Z,1.90
2022-10-08T17:41:27.547Z,2.00
2022-10-08T17:43:57.963Z,1.95
2022-10-08T17:46:29.441Z,2.00
2022-10-08T17:48:57.052Z,2.15
2022-10-08T17:51:26.536Z,1.90
2022-10-08T17:54:02.310Z,1.60
2022-10-08T17:56:29.427Z,2.10
2022-10-08T17:58:56.383Z,2.20
2022-10-08T18:01:30.451Z,2.38
2022-10-08T18:04:03.792Z,2.80
2022-10-08T18:06:32.087Z,2.40
2022-10-08T18:09:01.896Z,3.78
2022-10-08T18:11:30.981Z,4.03
2022-10-08T18:13:58.090Z,3.22
2022-10-08T18:16:28.017Z,3.00
2022-10-08T18:18:55.183Z,2.15
2022-10-08T18:21:22.615Z,2.03
2022-10-08T18:23:49.722Z,1.90
2022-10-08T18:26:32.530Z,3.08
2022-10-08T18:29:01.277Z,5.55
2022-10-08T18:31:31.294Z,4.38
2022-10-08T18:34:01.394Z,3.00
2022-10-08T18:36:33.107Z,3.35
2022-10-08T18:39:05.642Z,4.78
2022-10-08T18:41:38.674Z,4.40
2022-10-08T18:44:06.824Z,4.13
2022-10-08T18:46:35.957Z,4.35
2022-10-08T18:49:03.426Z,4.25
2022-10-08T18:51:30.988Z,4.68
2022-10-08T18:53:59.304Z,4.13
2022-10-08T18:56:35.547Z,3.00
2022-10-08T18:59:05.501Z,2.63
2022-10-08T19:01:38.145Z,2.28
2022-10-08T19:04:08.012Z,2.63
2022-10-08T19:06:37.586Z,2.08
2022-10-08T19:09:06.094Z,2.00
2022-10-08T19:11:41.879Z,1.67
2022-10-08T19:14:13.399Z,2.05
2022-10-08T19:16:41.130Z,1.98
2022-10-08T19:19:14.683Z,2.05
2022-10-08T19:21:45.083Z,1.67
2022-10-08T19:24:19.402Z,2.10
2022-10-08T19:26:47.021Z,2.45
2022-10-08T19:29:16.261Z,2.00
2022-10-08T19:31:43.643Z,2.60
2022-10-08T19:34:13.409Z,2.50
2022-10-08T19:36:40.947Z,2.10
2022-10-08T19:39:11.249Z,2.13
2022-10-08T19:41:40.015Z,2.13
2022-10-08T19:44:07.095Z,2.25
2022-10-08T19:46:34.025Z,1.92
2022-10-08T19:49:03.415Z,2.30
2022-10-08T19:51:31.857Z,1.90
2022-10-08T19:53:59.800Z,2.35
2022-10-08T19:56:27.352Z,2.13
2022-10-08T19:58:55.017Z,2.30
2022-10-08T20:01:28.039Z,1.88
2022-10-08T20:03:56.662Z,2.30
2022-10-08T20:06:26.219Z,2.85
2022-10-08T20:08:58.536Z,5.68
2022-10-08T20:11:26.029Z,5.85
2022-10-08T20:13:53.822Z,7.28
2022-10-08T20:16:26.510Z,7.13
2022-10-08T20:19:02.056Z,7.95
2022-10-08T20:21:31.540Z,9.32
2022-10-08T20:23:58.477Z,8.75
2022-10-08T20:26:26.321Z,8.23
2022-10-08T20:28:54.916Z,8.10
2022-10-08T20:31:33.873Z,6.07
2022-10-08T20:34:06.647Z,4.97
2022-10-08T20:36:33.920Z,5.15
2022-10-08T20:39:00.976Z,3.88
2022-10-08T20:41:30.986Z,4.05
2022-10-08T20:44:00.632Z,3.70
2022-10-08T20:46:27.821Z,4.05
2022-10-08T20:48:54.853Z,3.38
2022-10-08T20:51:25.443Z,3.10
2022-10-08T20:53:57.569Z,2.50
2022-10-08T20:56:25.830Z,2.47
2022-10-08T20:58:52.961Z,2.60
2022-10-08T21:01:23.421Z,2.88
2022-10-08T21:03:50.681Z,2.50
2022-10-08T21:06:19.695Z,2.00
2022-10-08T21:08:48.638Z,2.40
2022-10-08T21:11:18.137Z,1.90
2022-10-08T21:13:45.557Z,1.63
2022-10-08T21:16:13.895Z,2.13
2022-10-08T21:18:41.090Z,1.83
2022-10-08T21:21:13.287Z,1.88
2022-10-08T21:23:41.008Z,1.90
2022-10-08T21:26:16.695Z,1.50
2022-10-08T21:28:45.324Z,2.05
2022-10-08T21:31:13.508Z,1.77
2022-10-08T21:33:46.280Z,2.05
2022-10-08T21:36:18.560Z,1.75
2022-10-08T21:38:46.015Z,1.90
2022-10-08T21:41:14.271Z,1.83
2022-10-08T21:43:46.481Z,1.98
2022-10-08T21:46:16.752Z,1.90
2022-10-08T21:48:43.676Z,3.25
2022-10-08T21:51:21.580Z,1.67
2022-10-08T21:53:51.298Z,1.80
2022-10-08T21:56:23.011Z,2.25
2022-10-08T21:58:52.121Z,2.63
2022-10-08T22:01:28.176Z,2.00
2022-10-08T22:03:59.091Z,2.25
2022-10-08T22:06:28.176Z,2.85
2022-10-08T22:08:55.383Z,2.58
2022-10-08T22:11:22.145Z,2.33
2022-10-08T22:13:49.530Z,2.05
2022-10-08T22:16:17.921Z,2.25
2022-10-08T22:18:45.036Z,2.33
2022-10-08T22:21:17.463Z,2.30
2022-10-08T22:23:44.649Z,2.63
2022-10-08T22:26:18.561Z,2.50
2022-10-08T22:28:45.865Z,2.83
2022-10-08T22:31:14.355Z,2.47
2022-10-08T22:33:41.328Z,1.90
2022-10-08T22:36:14.161Z,2.50
2022-10-08T22:38:42.053Z,2.15
2022-10-08T22:41:13.700Z,2.20
2022-10-08T22:43:41.568Z,2.58
2022-10-08T22:46:11.432Z,2.75
2022-10-08T22:48:38.776Z,2.33
2022-10-08T22:51:16.682Z,2.45
2022-10-08T22:53:43.404Z,2.05
2022-10-08T22:56:21.023Z,2.70
2022-10-08T22:58:48.843Z,2.33
2022-10-08T23:01:18.624Z,2.92
2022-10-08T23:03:45.528Z,2.78
2022-10-08T23:06:25.588Z,3.10
2022-10-08T23:08:55.362Z,3.38
2022-10-08T23:11:22.085Z,3.03
2022-10-08T23:13:53.362Z,3.47
2022-10-08T23:16:20.734Z,3.20
2022-10-08T23:18:53.729Z,2.47
2022-10-08T23:21:20.560Z,3.00
2022-10-08T23:23:49.315Z,3.38
2022-10-08T23:26:17.077Z,3.55
2022-10-08T23:28:44.930Z,3.13
2022-10-08T23:31:14.893Z,2.70
2022-10-08T23:33:43.895Z,2.83
2022-10-08T23:36:12.593Z,3.17
2022-10-08T23:38:39.256Z,3.03
2022-10-08T23:41:08.270Z,4.45
2022-10-08T23:43:46.023Z,3.20
2022-10-08T23:46:15.281Z,4.18
2022-10-08T23:48:42.325Z,3.30
2022-10-08T23:51:10.428Z,3.58
2022-10-08T23:53:38.250Z,3.35
2022-10-08T23:56:06.276Z,3.20
2022-10-08T23:58:33.305Z,3.50
